Harper, Texas
Current Conditions -  °F | °C
As of 8:55 PM on Thursday 18 Dec 2014 (Local Time) from KT82 Reporting Station
Overcast Overcast  
Wind Chill: 55°   Ceiling: 300
Heat Index: 55°   Visibility: 7mi
Dew Point: 53°   Wind: 6mph
Humidity: 96%   Direction: 100°E
Pressure: 30.07"   Gusts: NA
Location:  30.3°N, 99.25°W
Report Text: KT82 190255Z AUTO 10005KT 7SM OVC003 13/12 A3007 RMK AO2 T01250118
Loading
Personal Weather Stations






























Interactive Weather Map New forecast layout! Learn more

10-Day Weather Forecast

Advertisements
Track Severe Weather on mobile